Time;durP1;ratioP1;P1;durP2;ratioP2;P2;SDS_P1;SDS_P2;PMS_P1;PMS_P2;Temp;Humidity;BMP_temperature;BMP_pressure;BME280_temperature;BME280_humidity;BME280_pressure;Samples;Min_cycle;Max_cycle;Signal;HPM_P1;HPM_P2
2024/04/04 00:04:42;;;;;;;0.00;0.00;;;;;;;10.93;76.99;100285.41;15410678;28;20047;-54
2024/04/04 00:12:20;;;;;;;0.00;0.00;;;;;;;10.81;77.84;100289.03;15411707;28;20423;-52
2024/04/04 00:20:06;;;;;;;0.10;0.10;;;;;;;10.40;79.60;100293.16;15446341;28;20047;-55
2024/04/04 00:27:39;;;;;;;0.10;0.10;;;;;;;10.63;78.75;100287.16;15430803;28;20058;-55
2024/04/04 00:35:15;;;;;;;0.00;0.00;;;;;;;10.88;77.71;100292.47;15411504;28;20066;-55
2024/04/04 00:42:50;;;;;;;0.00;0.00;;;;;;;10.76;78.26;100297.75;15415925;28;20073;-54
2024/04/04 00:50:31;;;;;;;0.00;0.00;;;;;;;10.85;78.31;100287.56;15409283;28;20065;-50
2024/04/04 00:58:05;;;;;;;0.10;0.10;;;;;;;10.53;78.88;100284.97;15406886;28;20126;-53
2024/04/04 01:05:40;;;;;;;0.00;0.00;;;;;;;10.52;79.55;100296.75;15419992;28;20503;-53
2024/04/04 01:13:15;;;;;;;0.00;0.00;;;;;;;10.57;79.34;100285.34;15443870;28;20773;-50
2024/04/04 01:20:53;;;;;;;0.00;0.00;;;;;;;10.55;80.03;100298.19;15448224;28;20104;-52
2024/04/04 01:28:33;;;;;;;0.00;0.00;;;;;;;10.49;81.06;100294.50;15412899;28;20556;-50
2024/04/04 01:36:13;;;;;;;0.00;0.00;;;;;;;10.48;82.08;100293.69;15412250;28;20522;-53
2024/04/04 01:43:54;;;;;;;0.40;0.13;;;;;;;10.56;81.48;100289.09;15413600;28;20881;-52
2024/04/04 01:51:27;;;;;;;0.00;0.00;;;;;;;10.38;82.52;100277.28;15454839;28;20467;-54
2024/04/04 01:59:02;;;;;;;0.00;0.00;;;;;;;10.25;83.23;100292.66;15411650;28;20096;-50
2024/04/04 02:06:36;;;;;;;0.17;0.10;;;;;;;10.40;83.16;100279.75;15425135;28;20450;-51
2024/04/04 02:14:20;;;;;;;0.00;0.00;;;;;;;10.21;84.09;100282.34;15455187;28;20069;-53
2024/04/04 02:22:06;;;;;;;0.30;0.30;;;;;;;10.36;83.90;100273.19;15423192;28;20077;-55
2024/04/04 02:29:44;;;;;;;0.00;0.00;;;;;;;10.31;84.67;100286.44;15417496;28;20054;-54
2024/04/04 02:37:26;;;;;;;;;;;;;;;10.40;84.99;100285.94;15387156;28;20407;-52
2024/04/04 02:45:07;;;;;;;0.00;0.00;;;;;;;10.12;85.85;100290.91;15408837;28;19922;-54
2024/04/04 02:52:49;;;;;;;0.00;0.00;;;;;;;10.40;84.78;100272.53;15431631;28;20049;-52
2024/04/04 03:00:28;;;;;;;0.52;0.52;;;;;;;10.29;85.02;100280.44;15711993;22;20066;-50
2024/04/04 03:08:02;;;;;;;0.00;0.00;;;;;;;10.06;84.71;100271.09;15738413;28;20243;-46
2024/04/04 03:15:39;;;;;;;0.00;0.00;;;;;;;10.29;83.74;100272.41;15749033;28;20048;-47
2024/04/04 03:23:21;;;;;;;0.10;0.10;;;;;;;10.73;81.69;100280.25;15753047;28;20092;-49
2024/04/04 03:30:56;;;;;;;0.57;0.57;;;;;;;10.55;82.51;100279.41;15717161;28;20036;-48
2024/04/04 03:38:30;;;;;;;1.33;0.68;;;;;;;10.48;82.28;100295.53;15768512;28;20416;-51
2024/04/04 03:46:07;;;;;;;0.00;0.00;;;;;;;10.33;81.90;100297.75;15748901;28;20043;-48
2024/04/04 03:53:42;;;;;;;0.55;0.55;;;;;;;10.27;82.84;100287.91;15751846;28;20048;-45
2024/04/04 04:01:23;;;;;;;0.00;0.00;;;;;;;10.13;82.68;100306.75;15740021;28;20126;-44
2024/04/04 04:09:02;;;;;;;0.00;0.00;;;;;;;10.28;83.03;100319.88;15773256;28;20032;-47
2024/04/04 04:16:39;;;;;;;0.00;0.00;;;;;;;10.36;82.34;100324.16;15751195;28;20044;-47
2024/04/04 04:24:14;;;;;;;0.00;0.00;;;;;;;10.15;83.02;100307.34;15735595;28;20095;-48
2024/04/04 04:31:54;;;;;;;0.00;0.00;;;;;;;10.55;81.25;100333.91;15763697;28;20127;-52
2024/04/04 04:39:46;;;;;;;0.00;0.00;;;;;;;10.41;81.46;100340.41;15737673;28;20340;-48
2024/04/04 04:47:24;;;;;;;0.00;0.00;;;;;;;10.63;80.60;100349.72;15760741;28;20044;-51
2024/04/04 04:54:58;;;;;;;0.00;0.00;;;;;;;10.37;81.96;100345.38;15756145;28;20691;-45
2024/04/04 05:02:34;;;;;;;0.43;0.10;;;;;;;10.36;81.33;100346.44;15747947;28;20051;-50
2024/04/04 05:10:09;;;;;;;0.00;0.00;;;;;;;10.25;82.77;100340.94;15757496;28;20048;-47
2024/04/04 05:17:46;;;;;;;0.00;0.00;;;;;;;10.35;82.70;100360.03;15740155;28;20044;-50
2024/04/04 05:25:23;;;;;;;0.00;0.00;;;;;;;10.05;84.07;100371.38;15757581;28;20405;-50
2024/04/04 05:33:01;;;;;;;0.80;0.20;;;;;;;10.29;82.68;100368.97;15757008;28;20407;-53
2024/04/04 05:40:36;;;;;;;0.00;0.00;;;;;;;10.56;81.44;100375.78;15768926;28;20105;-46
2024/04/04 05:48:11;;;;;;;0.20;0.20;;;;;;;10.76;80.16;100383.66;15736469;28;20064;-52
2024/04/04 05:55:45;;;;;;;0.10;0.10;;;;;;;10.71;79.37;100360.16;15744241;28;20048;-48
2024/04/04 06:03:21;;;;;;;0.10;0.08;;;;;;;11.83;74.66;100380.66;15747903;28;20051;-49
2024/04/04 06:10:56;;;;;;;0.35;0.20;;;;;;;11.75;75.61;100379.09;15750446;28;20036;-47
2024/04/04 06:18:34;;;;;;;0.20;0.20;;;;;;;12.00;76.21;100368.22;15741110;28;20472;-53
2024/04/04 06:26:09;;;;;;;1.65;0.88;;;;;;;13.00;71.25;100362.03;15721166;28;20048;-50
2024/04/04 06:33:48;;;;;;;0.47;0.25;;;;;;;14.02;68.49;100356.84;15764037;28;20408;-44
2024/04/04 06:41:23;;;;;;;0.00;0.00;;;;;;;15.02;62.90;100370.69;15768853;28;20165;-46
2024/04/04 06:48:58;;;;;;;0.35;0.30;;;;;;;14.91;63.41;100375.09;15767102;28;20368;-45
2024/04/04 06:56:33;;;;;;;0.08;0.08;;;;;;;14.85;63.74;100368.00;15755161;28;20151;-49
2024/04/04 07:04:11;;;;;;;0.00;0.00;;;;;;;14.98;61.52;100345.22;15737165;28;20043;-50
2024/04/04 07:11:45;;;;;;;0.30;0.17;;;;;;;14.35;62.78;100378.75;15750269;28;20044;-49
2024/04/04 07:19:21;;;;;;;0.00;0.00;;;;;;;15.65;60.80;100372.06;15748042;28;20040;-50
2024/04/04 07:26:54;;;;;;;1.65;1.10;;;;;;;16.91;55.21;100362.66;15736148;28;20451;-46
2024/04/04 07:34:30;;;;;;;0.00;0.00;;;;;;;17.65;52.85;100363.59;15767826;28;20149;-48
2024/04/04 07:42:04;;;;;;;0.00;0.00;;;;;;;17.54;51.18;100374.41;15751348;28;20083;-50
2024/04/04 07:49:40;;;;;;;0.22;0.10;;;;;;;16.96;54.27;100367.31;15743393;28;20140;-50
2024/04/04 07:57:14;;;;;;;0.05;0.03;;;;;;;16.36;52.94;100371.97;15732287;28;20493;-53
2024/04/04 08:04:52;;;;;;;0.00;0.00;;;;;;;18.01;49.84;100376.22;15741309;28;20063;-47
2024/04/04 08:12:27;;;;;;;0.65;0.32;;;;;;;17.47;49.04;100379.25;15761347;28;20098;-53
2024/04/04 08:20:04;;;;;;;0.03;0.03;;;;;;;17.98;48.43;100376.72;15734940;28;20032;-48
2024/04/04 08:27:39;;;;;;;2.22;1.17;;;;;;;17.64;49.04;100379.06;15736635;28;20045;-53
2024/04/04 08:35:16;;;;;;;0.00;0.00;;;;;;;16.59;50.43;100370.81;15757897;28;20045;-46
2024/04/04 08:42:54;;;;;;;0.08;0.08;;;;;;;16.07;52.11;100366.81;15759009;28;20035;-47
2024/04/04 08:50:31;;;;;;;0.30;0.20;;;;;;;15.71;52.52;100376.44;15711571;28;20060;-53
2024/04/04 08:58:09;;;;;;;0.00;0.00;;;;;;;16.83;49.85;100371.28;15720661;28;20081;-51
2024/04/04 09:05:44;;;;;;;0.00;0.00;;;;;;;18.10;47.92;100352.06;15761047;28;20072;-50
2024/04/04 09:13:25;;;;;;;0.00;0.00;;;;;;;16.43;48.63;100366.34;15698150;22;20042;-52
2024/04/04 09:21:00;;;;;;;0.00;0.00;;;;;;;19.13;44.40;100350.91;15581305;28;20127;-51
2024/04/04 09:28:38;;;;;;;0.00;0.00;;;;;;;16.55;48.28;100353.44;15599471;28;20047;-51
2024/04/04 09:36:18;;;;;;;0.00;0.00;;;;;;;15.77;50.90;100345.69;15593994;28;20413;-55
2024/04/04 09:43:57;;;;;;;0.08;0.00;;;;;;;14.68;51.77;100348.25;15609629;28;20038;-54
2024/04/04 09:51:34;;;;;;;0.10;0.10;;;;;;;15.04;52.59;100346.91;15595362;28;20518;-51
2024/04/04 09:59:08;;;;;;;0.00;0.00;;;;;;;14.66;55.76;100345.00;15605714;28;20420;-50
2024/04/04 10:06:44;;;;;;;0.00;0.00;;;;;;;14.73;55.13;100332.94;15594425;28;20041;-50
2024/04/04 10:14:20;;;;;;;0.00;0.00;;;;;;;14.63;55.70;100319.28;15612484;28;20447;-51
2024/04/04 10:21:56;;;;;;;0.00;0.00;;;;;;;14.69;56.21;100315.63;15610574;28;20506;-53
2024/04/04 10:29:33;;;;;;;0.00;0.00;;;;;;;14.72;56.87;100319.69;15616688;28;20042;-54
2024/04/04 10:37:15;;;;;;;0.00;0.00;;;;;;;13.94;62.42;100316.81;15611626;28;20493;-52
2024/04/04 10:44:51;;;;;;;0.17;0.10;;;;;;;13.81;66.90;100319.78;15608254;28;20335;-55
2024/04/04 10:52:27;;;;;;;0.00;0.00;;;;;;;13.59;69.88;100308.84;15588322;28;20403;-51
2024/04/04 11:00:10;;;;;;;0.00;0.00;;;;;;;13.01;74.34;100307.94;15586116;28;20076;-52
2024/04/04 11:07:57;;;;;;;0.00;0.00;;;;;;;12.78;75.64;100289.13;15593892;28;20038;-51
2024/04/04 11:15:30;;;;;;;0.00;0.00;;;;;;;12.61;75.86;100282.78;15597124;28;20037;-52
2024/04/04 11:23:06;;;;;;;0.00;0.00;;;;;;;12.97;75.83;100268.25;15594266;28;20292;-54
2024/04/04 11:30:40;;;;;;;0.00;0.00;;;;;;;13.06;74.06;100264.13;15593274;28;20045;-56
2024/04/04 11:38:15;;;;;;;0.00;0.00;;;;;;;13.21;73.88;100256.34;15609995;28;20053;-55
2024/04/04 11:45:51;;;;;;;0.00;0.00;;;;;;;13.32;74.22;100243.09;15598516;28;20065;-53
2024/04/04 11:53:26;;;;;;;0.00;0.00;;;;;;;13.08;75.10;100243.13;15609430;28;20037;-49
2024/04/04 12:01:00;;;;;;;0.00;0.00;;;;;;;13.09;77.02;100230.47;15586739;28;20116;-50
2024/04/04 12:08:35;;;;;;;0.22;0.22;;;;;;;13.14;77.81;100215.22;15602883;28;20042;-52
2024/04/04 12:16:10;;;;;;;0.25;0.20;;;;;;;12.85;79.15;100167.78;15604737;28;20049;-51
2024/04/04 12:23:45;;;;;;;0.00;0.00;;;;;;;13.04;81.38;100209.63;15594396;28;20076;-54
2024/04/04 12:31:20;;;;;;;0.85;0.35;;;;;;;12.66;83.83;100194.06;15602195;28;20049;-53
2024/04/04 12:38:55;;;;;;;0.03;0.03;;;;;;;12.35;86.83;100174.53;15586133;28;20316;-50
2024/04/04 12:46:29;;;;;;;0.00;0.00;;;;;;;12.46;86.91;100162.94;15596949;28;20056;-52
2024/04/04 12:54:05;;;;;;;1.75;0.52;;;;;;;12.39;88.24;100150.66;15585406;28;20357;-49
2024/04/04 13:01:39;;;;;;;0.00;0.00;;;;;;;12.63;89.07;100138.78;15595076;28;20052;-50
2024/04/04 13:09:16;;;;;;;0.52;0.52;;;;;;;12.77;88.97;100128.56;15603924;28;20037;-49
2024/04/04 13:16:53;;;;;;;0.00;0.00;;;;;;;12.75;89.48;100107.25;15599077;28;20126;-51
2024/04/04 13:24:29;;;;;;;0.57;0.57;;;;;;;12.67;91.06;100099.56;15598355;28;20049;-53
2024/04/04 13:32:03;;;;;;;0.00;0.00;;;;;;;12.93;89.35;100092.78;15598958;28;20057;-50
2024/04/04 13:39:39;;;;;;;0.00;0.00;;;;;;;13.08;89.03;100080.66;15580364;28;20042;-55
2024/04/04 13:47:14;;;;;;;0.50;0.43;;;;;;;13.15;86.88;100074.06;15615672;28;20060;-49
2024/04/04 13:54:50;;;;;;;0.10;0.10;;;;;;;13.12;87.61;100063.75;15607881;28;20346;-51
2024/04/04 14:02:24;;;;;;;0.80;0.65;;;;;;;13.09;88.96;100050.75;15604330;28;20080;-51
2024/04/04 14:09:59;;;;;;;0.00;0.00;;;;;;;13.16;89.02;100048.75;15600058;28;20117;-50
2024/04/04 14:17:33;;;;;;;0.00;0.00;;;;;;;13.25;89.26;100044.63;15615819;28;20048;-50
2024/04/04 14:25:09;;;;;;;0.00;0.00;;;;;;;13.48;88.81;100051.72;15593922;28;20530;-50
2024/04/04 14:32:42;;;;;;;0.00;0.00;;;;;;;13.14;89.75;100036.56;15604727;28;20049;-51
2024/04/04 14:47:44;;;;;;;0.28;0.25;;;;;;;14.01;86.92;100033.31;15737288;27;72252;-53
2024/04/04 14:55:18;;;;;;;1.08;0.80;;;;;;;14.30;85.20;100015.03;15737892;27;20497;-55
2024/04/04 15:02:53;;;;;;;0.52;0.28;;;;;;;14.82;81.94;100022.63;15733635;28;20396;-54
2024/04/04 15:10:27;;;;;;;0.00;0.00;;;;;;;14.57;82.92;100044.81;15725728;28;20405;-52
2024/04/04 15:18:05;;;;;;;0.50;0.35;;;;;;;14.94;80.90;100049.50;15728089;28;20127;-51
2024/04/04 15:25:39;;;;;;;0.25;0.10;;;;;;;15.03;78.74;100039.84;15724307;28;20059;-50
2024/04/04 15:33:14;;;;;;;0.00;0.00;;;;;;;15.19;77.73;100049.72;15722810;28;20297;-52
2024/04/04 15:40:50;;;;;;;0.17;0.17;;;;;;;15.08;76.87;100055.31;15721920;28;20122;-53
2024/04/04 15:48:26;;;;;;;0.00;0.00;;;;;;;15.05;75.56;100046.63;15722053;28;20418;-50
2024/04/04 15:56:00;;;;;;;0.00;0.00;;;;;;;15.21;74.20;100053.00;15701255;28;20041;-52
2024/04/04 16:03:37;;;;;;;0.20;0.20;;;;;;;15.16;74.89;100052.16;15680497;28;20037;-50
2024/04/04 16:11:16;;;;;;;0.03;0.03;;;;;;;15.10;74.18;100063.97;15677811;28;20120;-53
2024/04/04 16:18:51;;;;;;;0.00;0.00;;;;;;;15.46;72.88;100065.91;15680276;28;20496;-50
2024/04/04 16:26:26;;;;;;;0.10;0.05;;;;;;;15.27;74.08;100070.88;15679270;28;20490;-52
2024/04/04 16:34:02;;;;;;;0.30;0.10;;;;;;;14.97;75.11;100074.13;15679213;28;20484;-52
2024/04/04 16:41:36;;;;;;;0.30;0.30;;;;;;;15.01;74.27;100096.88;15678557;28;20087;-52
2024/04/04 16:49:13;;;;;;;0.00;0.00;;;;;;;14.66;74.78;100097.31;15677342;28;20099;-51
2024/04/04 16:56:48;;;;;;;0.00;0.00;;;;;;;14.75;73.10;100103.06;15676363;28;20135;-54
2024/04/04 17:04:23;;;;;;;0.00;0.00;;;;;;;14.88;71.77;100116.19;15678364;28;20025;-53
2024/04/04 17:11:58;;;;;;;0.25;0.20;;;;;;;14.61;71.51;100137.75;15678867;28;20079;-54
2024/04/04 17:19:33;;;;;;;0.08;0.08;;;;;;;14.39;71.01;100150.41;15675896;28;20414;-52
2024/04/04 17:27:09;;;;;;;0.00;0.00;;;;;;;14.52;69.78;100177.88;15675754;28;20039;-53
2024/04/04 17:34:44;;;;;;;0.55;0.50;;;;;;;14.19;69.24;100153.66;15677372;28;20041;-51
2024/04/04 17:42:19;;;;;;;0.00;0.00;;;;;;;13.87;70.90;100145.34;15680887;28;20087;-55
2024/04/04 17:49:54;;;;;;;0.00;0.00;;;;;;;13.63;72.70;100153.59;15679862;28;20044;-53
2024/04/04 17:57:31;;;;;;;0.00;0.00;;;;;;;13.66;73.48;100163.06;15658645;28;20037;-49
2024/04/04 18:05:07;;;;;;;0.00;0.00;;;;;;;13.58;73.98;100180.47;15674555;28;20033;-51
2024/04/04 18:12:41;;;;;;;0.00;0.00;;;;;;;13.50;74.13;100200.56;15673748;28;20245;-53
2024/04/04 18:20:17;;;;;;;0.00;0.00;;;;;;;13.56;73.80;100209.56;15670889;28;20033;-52
2024/04/04 18:27:52;;;;;;;0.00;0.00;;;;;;;13.80;72.88;100229.13;15671391;28;20044;-55
2024/04/04 18:35:31;;;;;;;0.00;0.00;;;;;;;13.70;73.41;100243.25;15671081;28;20057;-54
2024/04/04 18:43:08;;;;;;;0.65;0.52;;;;;;;13.70;73.19;100261.31;15671916;28;20036;-52
2024/04/04 18:50:43;;;;;;;0.00;0.00;;;;;;;13.51;73.72;100266.91;15671515;28;20501;-52
2024/04/04 18:58:16;;;;;;;0.10;0.10;;;;;;;13.51;73.60;100271.47;15662694;28;20418;-50
2024/04/04 19:05:52;;;;;;;0.00;0.00;;;;;;;13.39;73.87;100279.63;15653051;28;20049;-52
2024/04/04 19:13:27;;;;;;;0.00;0.00;;;;;;;13.23;74.14;100289.28;15668929;28;20051;-51
2024/04/04 19:21:05;;;;;;;0.00;0.00;;;;;;;13.13;74.17;100297.13;15652590;28;20077;-52
2024/04/04 19:28:40;;;;;;;0.00;0.00;;;;;;;12.94;74.63;100306.41;15672065;28;20453;-55
2024/04/04 19:36:15;;;;;;;0.25;0.15;;;;;;;12.81;74.63;100320.13;15680766;28;20541;-53
2024/04/04 19:43:49;;;;;;;0.00;0.00;;;;;;;12.57;75.12;100322.81;15679531;28;20053;-52
2024/04/04 19:51:25;;;;;;;0.00;0.00;;;;;;;12.62;73.61;100331.00;15680766;28;20218;-50
2024/04/04 19:59:03;;;;;;;0.00;0.00;;;;;;;12.43;72.76;100349.13;15681465;28;20032;-51
2024/04/04 20:06:37;;;;;;;0.00;0.00;;;;;;;12.41;72.09;100375.47;15681403;28;20474;-53
2024/04/04 20:14:11;;;;;;;0.98;0.15;;;;;;;12.39;70.06;100377.56;15685635;28;20043;-53
2024/04/04 20:21:46;;;;;;;0.00;0.00;;;;;;;12.05;70.67;100386.38;15687439;28;20033;-57
2024/04/04 20:29:19;;;;;;;0.00;0.00;;;;;;;11.74;70.90;100417.75;15686529;28;20045;-54
2024/04/04 20:36:55;;;;;;;0.00;0.00;;;;;;;11.91;70.01;100426.06;15679498;28;20041;-53
2024/04/04 20:44:34;;;;;;;0.00;0.00;;;;;;;11.70;70.24;100441.63;15676199;28;20478;-53
2024/04/04 20:52:11;;;;;;;0.00;0.00;;;;;;;11.76;69.92;100453.34;15676839;28;20071;-52
2024/04/04 20:59:48;;;;;;;0.05;0.05;;;;;;;11.44;70.71;100460.72;15619855;23;20045;-52
2024/04/04 21:07:23;;;;;;;0.00;0.00;;;;;;;11.59;69.91;100465.72;15596798;28;20048;-49
2024/04/04 21:14:57;;;;;;;0.00;0.00;;;;;;;11.55;69.72;100469.91;15613299;28;20140;-49
2024/04/04 21:22:32;;;;;;;1.38;0.80;;;;;;;11.60;69.81;100484.31;15583269;28;20038;-51
2024/04/04 21:30:08;;;;;;;0.30;0.10;;;;;;;11.68;69.20;100500.16;15561891;28;20073;-48
2024/04/04 21:37:44;;;;;;;0.08;0.08;;;;;;;11.19;71.51;100506.41;15577563;28;20046;-50
2024/04/04 21:45:18;;;;;;;0.00;0.00;;;;;;;11.45;70.54;100506.16;15597678;28;20199;-53
2024/04/04 21:52:55;;;;;;;0.00;0.00;;;;;;;11.27;70.96;100521.44;15589856;28;20061;-48
2024/04/04 22:00:30;;;;;;;0.00;0.00;;;;;;;11.26;71.18;100527.84;15593072;28;20041;-49
2024/04/04 22:08:07;;;;;;;0.00;0.00;;;;;;;11.29;71.04;100538.19;15609137;28;20485;-50
2024/04/04 22:15:41;;;;;;;0.00;0.00;;;;;;;11.91;69.53;100534.47;15605903;28;20040;-50
2024/04/04 22:23:17;;;;;;;0.00;0.00;;;;;;;11.71;70.18;100549.97;15591188;28;20060;-50
2024/04/04 22:30:53;;;;;;;0.00;0.00;;;;;;;11.85;68.97;100554.22;15608033;28;20069;-50
2024/04/04 22:38:29;;;;;;;0.00;0.00;;;;;;;11.95;69.08;100567.13;15604576;28;20137;-50
2024/04/04 22:46:03;;;;;;;0.00;0.00;;;;;;;11.67;70.15;100571.09;15595679;28;20379;-51
2024/04/04 22:53:38;;;;;;;0.00;0.00;;;;;;;11.46;71.20;100566.13;15603001;28;20064;-51
2024/04/04 23:01:13;;;;;;;0.00;0.00;;;;;;;11.09;72.03;100578.59;15591078;28;20055;-52
2024/04/04 23:08:50;;;;;;;0.00;0.00;;;;;;;11.06;72.57;100590.63;15601310;28;20088;-50
2024/04/04 23:16:26;;;;;;;0.00;0.00;;;;;;;11.45;70.60;100600.22;15619445;28;20060;-50
2024/04/04 23:24:01;;;;;;;0.00;0.00;;;;;;;11.02;72.31;100604.69;15619309;28;20112;-51
2024/04/04 23:31:35;;;;;;;0.00;0.00;;;;;;;11.22;71.63;100613.44;15604304;28;20041;-48
2024/04/04 23:39:12;;;;;;;0.10;0.10;;;;;;;11.30;71.68;100626.63;15609846;28;20038;-48
2024/04/04 23:46:47;;;;;;;0.00;0.00;;;;;;;11.02;72.88;100634.25;15618395;28;20111;-49
2024/04/04 23:54:22;;;;;;;0.00;0.00;;;;;;;11.22;72.28;100633.06;15618491;28;20033;-47
